createdAt,value
2022-10-08T00:02:44.940Z,100415.41
2022-10-08T00:05:31.462Z,100429.75
2022-10-08T00:08:17.326Z,100425.31
2022-10-08T00:11:13.253Z,100433.75
2022-10-08T00:13:59.894Z,100424.56
2022-10-08T00:16:46.464Z,100428.91
2022-10-08T00:19:32.436Z,100422.59
2022-10-08T00:22:19.062Z,100418.16
2022-10-08T00:25:05.288Z,100419.00
2022-10-08T00:27:51.417Z,100403.63
2022-10-08T00:30:39.824Z,100418.53
2022-10-08T00:33:26.205Z,100415.53
2022-10-08T00:36:13.433Z,100408.25
2022-10-08T00:39:02.841Z,100400.25
2022-10-08T00:41:52.284Z,100396.09
2022-10-08T00:44:59.454Z,100389.31
2022-10-08T00:47:48.414Z,100388.22
2022-10-08T00:50:35.963Z,100381.31
2022-10-08T00:53:21.801Z,100378.03
2022-10-08T00:56:09.193Z,100373.88
2022-10-08T00:58:55.610Z,100379.56
2022-10-08T01:01:43.570Z,100374.62
2022-10-08T01:04:29.902Z,100377.94
2022-10-08T01:07:30.361Z,100380.19
2022-10-08T01:10:22.625Z,100372.63
2022-10-08T01:13:29.393Z,100383.88
2022-10-08T01:16:34.969Z,100372.34
2022-10-08T01:19:39.115Z,100368.56
2022-10-08T01:22:38.863Z,100362.78
2022-10-08T01:25:35.519Z,100361.47
2022-10-08T01:28:39.874Z,100366.84
2022-10-08T01:31:41.090Z,100370.06
2022-10-08T01:34:37.668Z,100356.78
2022-10-08T01:37:29.530Z,100350.97
2022-10-08T01:40:20.340Z,100348.69
2022-10-08T01:43:08.646Z,100348.44
2022-10-08T01:45:57.362Z,100342.03
2022-10-08T01:48:44.184Z,100338.37
2022-10-08T01:51:40.988Z,100335.50
2022-10-08T01:54:28.910Z,100331.03
2022-10-08T01:57:14.966Z,100337.53
2022-10-08T02:00:08.206Z,100337.03
2022-10-08T02:02:57.964Z,100337.22
2022-10-08T02:05:48.229Z,100334.81
2022-10-08T02:08:34.322Z,100336.53
2022-10-08T02:11:20.913Z,100332.44
2022-10-08T02:14:07.394Z,100327.88
2022-10-08T02:17:01.362Z,100330.38
2022-10-08T02:19:53.398Z,100332.75
2022-10-08T02:22:58.920Z,100328.72
2022-10-08T02:25:48.220Z,100327.97
2022-10-08T02:28:44.717Z,100327.50
2022-10-08T02:32:06.160Z,100323.75
2022-10-08T02:35:15.274Z,100312.91
2022-10-08T02:38:06.901Z,100322.78
2022-10-08T02:40:57.037Z,100316.53
2022-10-08T02:43:47.168Z,100312.81
2022-10-08T02:46:37.940Z,100312.88
2022-10-08T02:49:27.639Z,100314.66
2022-10-08T02:52:14.646Z,100313.03
2022-10-08T02:55:01.598Z,100317.25
2022-10-08T02:57:55.792Z,100313.16
2022-10-08T03:01:04.113Z,100315.03
2022-10-08T03:03:57.244Z,100315.97
2022-10-08T03:06:43.665Z,100315.91
2022-10-08T03:09:42.591Z,100308.28
2022-10-08T03:12:30.349Z,100315.19
2022-10-08T03:15:16.447Z,100304.81
2022-10-08T03:18:04.322Z,100305.06
2022-10-08T03:20:51.594Z,100312.00
2022-10-08T03:23:37.571Z,100319.69
2022-10-08T03:26:23.955Z,100315.53
2022-10-08T03:29:10.082Z,100317.53
2022-10-08T03:31:56.558Z,100323.22
2022-10-08T03:34:42.439Z,100318.75
2022-10-08T03:37:28.626Z,100317.19
2022-10-08T03:40:14.809Z,100315.00
2022-10-08T03:43:01.092Z,100321.84
2022-10-08T03:45:53.767Z,100314.13
2022-10-08T03:48:40.991Z,100320.16
2022-10-08T03:51:27.223Z,100310.59
2022-10-08T03:54:13.640Z,100314.53
2022-10-08T03:56:59.431Z,100307.94
2022-10-08T03:59:45.745Z,100312.97
2022-10-08T04:02:35.102Z,100311.56
2022-10-08T04:05:21.657Z,100306.31
2022-10-08T04:08:07.445Z,100302.19
2022-10-08T04:10:54.092Z,100306.88
2022-10-08T04:13:40.936Z,100294.06
2022-10-08T04:16:27.165Z,100303.59
2022-10-08T04:19:13.135Z,100303.41
2022-10-08T04:21:59.413Z,100302.81
2022-10-08T04:24:45.771Z,100294.09
2022-10-08T04:27:32.282Z,100301.47
2022-10-08T04:30:18.490Z,100297.75
2022-10-08T04:33:04.864Z,100303.59
2022-10-08T04:35:50.764Z,100296.97
2022-10-08T04:38:37.054Z,100297.94
2022-10-08T04:41:25.640Z,100301.00
2022-10-08T04:44:12.185Z,100305.97
2022-10-08T04:46:57.991Z,100299.78
2022-10-08T04:49:44.940Z,100299.81
2022-10-08T04:52:31.925Z,100301.00
2022-10-08T04:55:18.432Z,100295.25
2022-10-08T04:58:04.627Z,100299.47
2022-10-08T05:00:51.751Z,100300.44
2022-10-08T05:03:43.141Z,100303.72
2022-10-08T05:06:30.639Z,100304.38
2022-10-08T05:09:16.693Z,100304.34
2022-10-08T05:12:02.982Z,100306.75
2022-10-08T05:14:49.294Z,100301.09
2022-10-08T05:17:35.713Z,100309.84
2022-10-08T05:20:21.591Z,100299.06
2022-10-08T05:23:07.940Z,100298.69
2022-10-08T05:25:53.683Z,100304.06
2022-10-08T05:28:40.142Z,100297.06
2022-10-08T05:31:28.107Z,100300.41
2022-10-08T05:34:15.479Z,100301.69
2022-10-08T05:37:02.017Z,100298.31
2022-10-08T05:39:48.352Z,100304.31
2022-10-08T05:42:34.491Z,100313.66
2022-10-08T05:45:20.888Z,100308.44
2022-10-08T05:48:06.659Z,100311.56
2022-10-08T05:50:53.008Z,100325.44
2022-10-08T05:53:40.301Z,100321.03
2022-10-08T05:56:27.701Z,100319.47
2022-10-08T05:59:22.722Z,100332.28
2022-10-08T06:02:10.502Z,100332.31
2022-10-08T06:04:57.259Z,100330.56
2022-10-08T06:07:43.453Z,100335.91
2022-10-08T06:10:32.013Z,100335.63
2022-10-08T06:13:19.733Z,100336.06
2022-10-08T06:16:08.520Z,100342.97
2022-10-08T06:18:54.524Z,100341.09
2022-10-08T06:21:40.883Z,100342.69
2022-10-08T06:24:27.255Z,100347.19
2022-10-08T06:27:13.541Z,100347.91
2022-10-08T06:29:59.986Z,100349.72
2022-10-08T06:32:46.678Z,100347.09
2022-10-08T06:35:32.547Z,100349.91
2022-10-08T06:38:19.204Z,100348.00
2022-10-08T06:41:05.718Z,100349.03
2022-10-08T06:43:52.541Z,100347.81
2022-10-08T06:46:38.838Z,100352.69
2022-10-08T06:49:26.804Z,100350.72
2022-10-08T06:52:13.100Z,100353.03
2022-10-08T06:54:59.476Z,100364.31
2022-10-08T06:57:48.358Z,100360.75
2022-10-08T07:00:35.171Z,100366.22
2022-10-08T07:03:21.344Z,100366.31
2022-10-08T07:06:10.193Z,100361.78
2022-10-08T07:09:00.116Z,100355.84
2022-10-08T07:11:46.366Z,100360.47
2022-10-08T07:14:32.680Z,100355.25
2022-10-08T07:17:19.314Z,100353.75
2022-10-08T07:20:06.188Z,100349.66
2022-10-08T07:22:52.550Z,100360.56
2022-10-08T07:25:38.661Z,100364.78
2022-10-08T07:28:26.413Z,100353.94
2022-10-08T07:31:21.440Z,100362.53
2022-10-08T07:34:11.321Z,100357.16
2022-10-08T07:36:57.303Z,100359.59
2022-10-08T07:39:43.866Z,100354.25
2022-10-08T07:42:31.730Z,100351.31
2022-10-08T07:45:18.286Z,100347.41
2022-10-08T07:48:04.562Z,100352.47
2022-10-08T07:50:51.039Z,100350.16
2022-10-08T07:53:37.058Z,100348.81
2022-10-08T07:56:23.612Z,100352.09
2022-10-08T07:59:09.698Z,100347.16
2022-10-08T08:01:56.207Z,100346.75
2022-10-08T08:04:42.639Z,100347.88
2022-10-08T08:07:29.502Z,100344.28
2022-10-08T08:10:15.853Z,100340.25
2022-10-08T08:13:01.813Z,100342.63
2022-10-08T08:15:48.093Z,100343.16
2022-10-08T08:18:37.152Z,100335.94
2022-10-08T08:21:33.949Z,100341.53
2022-10-08T08:24:19.970Z,100328.63
2022-10-08T08:27:06.400Z,100337.91
2022-10-08T08:29:52.756Z,100334.44
2022-10-08T08:32:39.138Z,100336.06
2022-10-08T08:35:25.695Z,100336.13
2022-10-08T08:38:11.853Z,100340.53
2022-10-08T08:41:11.836Z,100329.44
2022-10-08T08:44:02.694Z,100336.00
2022-10-08T08:46:59.126Z,100340.22
2022-10-08T08:50:21.329Z,100329.16
2022-10-08T08:53:09.502Z,100332.44
2022-10-08T08:55:58.889Z,100322.59
2022-10-08T08:59:05.307Z,100327.56
2022-10-08T09:01:54.837Z,100329.09
2022-10-08T09:04:45.492Z,100321.44
2022-10-08T09:07:55.699Z,100328.97
2022-10-08T09:10:47.716Z,100324.00
2022-10-08T09:13:37.917Z,100328.84
2022-10-08T09:16:25.417Z,100327.81
2022-10-08T09:19:12.208Z,100321.47
2022-10-08T09:21:58.113Z,100328.75
2022-10-08T09:24:44.525Z,100332.09
2022-10-08T09:28:05.961Z,100336.34
2022-10-08T09:30:53.438Z,100328.50
2022-10-08T09:33:41.787Z,100329.28
2022-10-08T09:36:35.205Z,100320.16
2022-10-08T09:39:22.144Z,100330.19
2022-10-08T09:42:08.359Z,100323.16
2022-10-08T09:45:00.648Z,100325.66
2022-10-08T09:48:10.102Z,100319.53
2022-10-08T09:51:00.437Z,100313.88
2022-10-08T09:53:50.094Z,100303.88
2022-10-08T09:56:35.932Z,100304.87
2022-10-08T09:59:23.713Z,100307.03
2022-10-08T10:02:39.167Z,100295.09
2022-10-08T10:05:27.522Z,100295.69
2022-10-08T10:08:43.373Z,100290.84
2022-10-08T10:11:34.828Z,100287.56
2022-10-08T10:14:28.227Z,100288.28
2022-10-08T10:17:39.552Z,100283.22
2022-10-08T10:20:37.447Z,100279.81
2022-10-08T10:23:50.439Z,100280.84
2022-10-08T10:26:39.445Z,100277.81
2022-10-08T10:29:30.869Z,100268.88
2022-10-08T10:32:21.054Z,100268.34
2022-10-08T10:35:12.602Z,100259.16
2022-10-08T10:38:00.411Z,100251.44
2022-10-08T10:40:55.960Z,100240.00
2022-10-08T10:43:53.055Z,100242.94
2022-10-08T10:46:41.864Z,100242.25
2022-10-08T10:49:38.304Z,100241.13
2022-10-08T10:52:24.417Z,100239.22
2022-10-08T10:55:13.105Z,100234.31
2022-10-08T10:58:06.844Z,100230.94
2022-10-08T11:01:12.100Z,100224.25
2022-10-08T11:03:58.365Z,100222.75
2022-10-08T11:06:53.976Z,100217.41
2022-10-08T11:09:40.813Z,100206.28
2022-10-08T11:12:33.663Z,100216.31
2022-10-08T11:15:23.103Z,100211.78
2022-10-08T11:18:21.262Z,100213.63
2022-10-08T11:21:19.824Z,100201.06
2022-10-08T11:24:05.491Z,100211.09
2022-10-08T11:27:04.383Z,100201.47
2022-10-08T11:30:19.868Z,100201.53
2022-10-08T11:33:06.061Z,100197.00
2022-10-08T11:36:07.600Z,100198.50
2022-10-08T11:39:04.880Z,100193.94
2022-10-08T11:41:59.865Z,100183.34
2022-10-08T11:44:46.302Z,100185.53
2022-10-08T11:47:35.127Z,100190.50
2022-10-08T11:50:30.741Z,100180.50
2022-10-08T11:53:18.348Z,100183.41
2022-10-08T11:56:04.396Z,100181.50
2022-10-08T11:58:53.364Z,100167.88
2022-10-08T12:02:00.094Z,100170.91
2022-10-08T12:04:46.775Z,100171.03
2022-10-08T12:07:36.515Z,100165.41
2022-10-08T12:10:29.758Z,100165.94
2022-10-08T12:13:17.918Z,100152.94
2022-10-08T12:16:05.229Z,100157.72
2022-10-08T12:18:50.988Z,100157.25
2022-10-08T12:21:47.057Z,100154.03
2022-10-08T12:24:39.344Z,100149.81
2022-10-08T12:27:31.943Z,100145.41
2022-10-08T12:30:17.949Z,100149.28
2022-10-08T12:33:04.288Z,100149.72
2022-10-08T12:35:50.112Z,100144.75
2022-10-08T12:38:38.811Z,100143.88
2022-10-08T12:41:30.522Z,100137.06
2022-10-08T12:44:16.780Z,100125.41
2022-10-08T12:47:25.965Z,100124.81
2022-10-08T12:50:12.173Z,100124.31
2022-10-08T12:53:01.814Z,100121.78
2022-10-08T12:55:52.343Z,100131.00
2022-10-08T12:58:38.292Z,100123.34
2022-10-08T13:01:24.705Z,100117.00
2022-10-08T13:04:19.044Z,100113.44
2022-10-08T13:07:07.411Z,100122.78
2022-10-08T13:09:57.362Z,100119.78
2022-10-08T13:12:43.780Z,100121.59
2022-10-08T13:15:30.714Z,100116.31
2022-10-08T13:18:20.977Z,100118.16
2022-10-08T13:21:08.092Z,100114.97
2022-10-08T13:23:54.217Z,100114.44
2022-10-08T13:26:43.162Z,100108.97
2022-10-08T13:29:29.489Z,100112.31
2022-10-08T13:32:16.080Z,100109.94
2022-10-08T13:35:04.235Z,100105.13
2022-10-08T13:37:53.111Z,100107.84
2022-10-08T13:40:39.302Z,100102.25
2022-10-08T13:43:25.797Z,100105.50
2022-10-08T13:46:12.182Z,100105.13
2022-10-08T13:48:58.361Z,100095.47
2022-10-08T13:51:44.666Z,100093.53
2022-10-08T13:54:33.360Z,100099.53
2022-10-08T13:57:19.485Z,100094.81
2022-10-08T14:00:05.560Z,100096.69
2022-10-08T14:02:51.955Z,100090.94
2022-10-08T14:05:40.423Z,100084.78
2022-10-08T14:08:27.514Z,100079.56
2022-10-08T14:11:17.494Z,100085.53
2022-10-08T14:14:03.819Z,100074.44
2022-10-08T14:16:49.879Z,100077.37
2022-10-08T14:19:35.844Z,100077.09
2022-10-08T14:22:21.627Z,100070.69
2022-10-08T14:25:08.585Z,100065.91
2022-10-08T14:27:54.408Z,100066.28
2022-10-08T14:30:40.298Z,100065.88
2022-10-08T14:33:26.129Z,100066.69
2022-10-08T14:36:14.820Z,100063.87
2022-10-08T14:39:00.685Z,100071.91
2022-10-08T14:41:47.149Z,100067.06
2022-10-08T14:44:32.762Z,100069.84
2022-10-08T14:47:19.098Z,100062.66
2022-10-08T14:50:05.515Z,100061.44
2022-10-08T14:52:52.072Z,100054.66
2022-10-08T14:55:54.700Z,100053.87
2022-10-08T14:58:44.675Z,100058.25
2022-10-08T15:01:30.468Z,100068.25
2022-10-08T15:04:16.620Z,100066.28
2022-10-08T15:07:02.344Z,100059.88
2022-10-08T15:09:48.823Z,100060.25
2022-10-08T15:12:34.792Z,100060.91
2022-10-08T15:15:21.368Z,100059.00
2022-10-08T15:18:07.880Z,100052.47
2022-10-08T15:20:55.690Z,100050.53
2022-10-08T15:23:41.612Z,100050.22
2022-10-08T15:26:27.866Z,100044.28
2022-10-08T15:29:13.824Z,100057.81
2022-10-08T15:32:00.164Z,100048.19
2022-10-08T15:34:45.942Z,100049.38
2022-10-08T15:37:32.354Z,100046.87
2022-10-08T15:40:18.194Z,100049.50
2022-10-08T15:43:04.686Z,100055.06
2022-10-08T15:45:50.756Z,100057.59
2022-10-08T15:48:37.578Z,100063.38
2022-10-08T15:51:23.987Z,100076.62
2022-10-08T15:54:09.972Z,100062.50
2022-10-08T15:56:55.761Z,100067.78
2022-10-08T15:59:41.800Z,100073.28
2022-10-08T16:02:27.878Z,100075.50
2022-10-08T16:05:14.194Z,100067.97
2022-10-08T16:08:00.360Z,100062.84
2022-10-08T16:10:46.595Z,100072.50
2022-10-08T16:13:32.374Z,100070.19
2022-10-08T16:16:19.186Z,100073.00
2022-10-08T16:19:07.944Z,100068.47
2022-10-08T16:21:55.309Z,100075.53
2022-10-08T16:24:41.120Z,100073.94
2022-10-08T16:27:27.371Z,100075.97
2022-10-08T16:30:13.389Z,100089.47
2022-10-08T16:32:59.671Z,100092.47
2022-10-08T16:35:45.356Z,100090.47
2022-10-08T16:38:35.566Z,100098.47
2022-10-08T16:41:22.301Z,100094.69
2022-10-08T16:44:12.329Z,100097.00
2022-10-08T16:46:58.447Z,100098.59
2022-10-08T16:49:44.908Z,100100.31
2022-10-08T16:52:30.849Z,100100.06
2022-10-08T16:55:17.105Z,100100.31
2022-10-08T16:58:03.063Z,100104.56
2022-10-08T17:00:49.050Z,100110.66
2022-10-08T17:03:34.864Z,100110.47
2022-10-08T17:06:21.311Z,100112.56
2022-10-08T17:09:07.654Z,100118.00
2022-10-08T17:11:54.128Z,100116.28
2022-10-08T17:14:40.021Z,100120.53
2022-10-08T17:17:26.315Z,100111.78
2022-10-08T17:20:12.256Z,100114.72
2022-10-08T17:22:58.730Z,100119.63
2022-10-08T17:25:44.573Z,100131.81
2022-10-08T17:28:31.888Z,100134.38
2022-10-08T17:31:20.339Z,100139.47
2022-10-08T17:34:06.684Z,100134.38
2022-10-08T17:36:52.745Z,100135.25
2022-10-08T17:39:39.247Z,100141.38
2022-10-08T17:42:25.123Z,100145.16
2022-10-08T17:45:11.752Z,100140.19
2022-10-08T17:47:57.614Z,100150.78
2022-10-08T17:50:44.112Z,100153.47
2022-10-08T17:53:30.230Z,100147.69
2022-10-08T17:56:16.981Z,100148.00
2022-10-08T17:59:03.049Z,100151.47
2022-10-08T18:01:49.414Z,100149.88
2022-10-08T18:04:35.535Z,100149.81
2022-10-08T18:07:21.390Z,100149.81
2022-10-08T18:10:08.128Z,100153.16
2022-10-08T18:12:53.855Z,100153.84
2022-10-08T18:15:40.381Z,100145.75
2022-10-08T18:18:26.496Z,100157.38
2022-10-08T18:21:12.955Z,100157.12
2022-10-08T18:23:59.134Z,100168.91
2022-10-08T18:26:45.565Z,100175.28
2022-10-08T18:29:31.409Z,100172.22
2022-10-08T18:32:17.336Z,100169.72
2022-10-08T18:35:03.321Z,100172.22
2022-10-08T18:37:50.073Z,100178.19
2022-10-08T18:40:36.285Z,100173.31
2022-10-08T18:43:22.500Z,100172.59
2022-10-08T18:46:08.409Z,100172.09
2022-10-08T18:48:54.632Z,100176.22
2022-10-08T18:51:40.101Z,100179.19
2022-10-08T18:54:26.043Z,100175.06
2022-10-08T18:57:11.680Z,100176.75
2022-10-08T18:59:58.064Z,100167.56
2022-10-08T19:02:44.267Z,100167.13
2022-10-08T19:05:30.300Z,100174.16
2022-10-08T19:08:16.139Z,100174.47
2022-10-08T19:11:12.792Z,100183.84
2022-10-08T19:13:58.406Z,100198.62
2022-10-08T19:16:45.087Z,100201.19
2022-10-08T19:19:31.896Z,100208.94
2022-10-08T19:22:18.086Z,100208.44
2022-10-08T19:25:03.954Z,100199.84
2022-10-08T19:27:50.295Z,100199.87
2022-10-08T19:30:36.187Z,100204.13
2022-10-08T19:33:22.542Z,100195.06
2022-10-08T19:36:08.498Z,100203.78
2022-10-08T19:38:55.653Z,100200.19
2022-10-08T19:41:41.634Z,100204.91
2022-10-08T19:44:27.734Z,100204.78
2022-10-08T19:47:13.614Z,100186.44
2022-10-08T19:49:59.908Z,100194.75
2022-10-08T19:52:49.739Z,100194.47
2022-10-08T19:55:38.292Z,100195.00
2022-10-08T19:58:24.234Z,100192.59
2022-10-08T20:01:11.764Z,100196.56
2022-10-08T20:03:58.297Z,100199.87
2022-10-08T20:06:44.152Z,100214.72
2022-10-08T20:09:30.978Z,100221.69
2022-10-08T20:12:16.885Z,100220.75
2022-10-08T20:15:03.328Z,100219.97
2022-10-08T20:17:50.566Z,100221.00
2022-10-08T20:20:36.837Z,100221.16
2022-10-08T20:23:22.619Z,100217.22
2022-10-08T20:26:09.449Z,100215.78
2022-10-08T20:28:57.377Z,100225.19
2022-10-08T20:31:44.724Z,100217.88
2022-10-08T20:34:31.695Z,100210.41
2022-10-08T20:37:18.106Z,100209.13
2022-10-08T20:40:03.927Z,100223.84
2022-10-08T20:42:50.758Z,100231.56
2022-10-08T20:45:37.004Z,100232.78
2022-10-08T20:48:23.322Z,100231.78
2022-10-08T20:51:10.434Z,100237.31
2022-10-08T20:53:57.750Z,100244.69
2022-10-08T20:56:43.587Z,100235.22
2022-10-08T20:59:29.857Z,100223.00
2022-10-08T21:02:19.616Z,100219.25
2022-10-08T21:05:06.186Z,100222.91
2022-10-08T21:07:52.017Z,100230.87
2022-10-08T21:10:38.569Z,100218.22
2022-10-08T21:13:24.531Z,100222.94
2022-10-08T21:16:12.753Z,100217.88
2022-10-08T21:19:02.185Z,100217.66
2022-10-08T21:21:48.688Z,100226.59
2022-10-08T21:24:35.865Z,100218.66
2022-10-08T21:27:21.867Z,100218.06
2022-10-08T21:30:08.079Z,100221.62
2022-10-08T21:32:55.161Z,100214.34
2022-10-08T21:35:41.305Z,100210.91
2022-10-08T21:38:30.475Z,100214.50
2022-10-08T21:41:17.230Z,100216.41
2022-10-08T21:44:04.114Z,100218.75
2022-10-08T21:46:49.959Z,100223.34
2022-10-08T21:49:36.536Z,100224.00
2022-10-08T21:52:21.968Z,100229.16
2022-10-08T21:55:08.620Z,100219.31
2022-10-08T21:57:54.234Z,100225.72
2022-10-08T22:00:40.204Z,100223.66
2022-10-08T22:03:26.510Z,100222.59
2022-10-08T22:06:12.215Z,100229.69
2022-10-08T22:08:58.393Z,100234.84
2022-10-08T22:11:44.704Z,100229.38
2022-10-08T22:14:30.781Z,100229.28
2022-10-08T22:17:16.744Z,100233.87
2022-10-08T22:20:03.179Z,100238.44
2022-10-08T22:22:49.432Z,100235.69
2022-10-08T22:25:36.228Z,100243.97
2022-10-08T22:28:22.033Z,100234.31
2022-10-08T22:31:08.821Z,100245.66
2022-10-08T22:33:54.789Z,100248.31
2022-10-08T22:36:41.835Z,100247.81
2022-10-08T22:39:27.523Z,100251.06
2022-10-08T22:42:14.049Z,100249.59
2022-10-08T22:44:59.877Z,100245.66
2022-10-08T22:47:46.334Z,100243.41
2022-10-08T22:50:33.627Z,100248.91
2022-10-08T22:53:19.982Z,100250.72
2022-10-08T22:56:13.156Z,100246.81
2022-10-08T22:58:59.813Z,100249.03
2022-10-08T23:01:45.891Z,100245.47
2022-10-08T23:04:32.310Z,100261.53
2022-10-08T23:07:17.873Z,100257.63
2022-10-08T23:10:04.458Z,100254.31
2022-10-08T23:12:50.390Z,100260.78
2022-10-08T23:15:36.967Z,100272.69
2022-10-08T23:18:22.842Z,100263.84
2022-10-08T23:21:10.260Z,100276.34
2022-10-08T23:23:56.661Z,100260.59
2022-10-08T23:26:42.839Z,100259.81
2022-10-08T23:29:28.687Z,100261.59
2022-10-08T23:32:14.545Z,100269.69
2022-10-08T23:35:00.306Z,100271.00
2022-10-08T23:37:48.559Z,100264.53
2022-10-08T23:40:34.544Z,100262.00
2022-10-08T23:43:20.836Z,100271.47
2022-10-08T23:46:07.207Z,100272.09
2022-10-08T23:48:53.790Z,100266.16
2022-10-08T23:51:39.827Z,100273.34
2022-10-08T23:54:25.701Z,100267.94
2022-10-08T23:57:11.408Z,100279.56
2022-10-08T23:59:57.230Z,100273.66
